Time;durP1;ratioP1;P1;durP2;ratioP2;P2;SDS_P1;SDS_P2;PMS_P1;PMS_P2;Temp;Humidity;BMP_temperature;BMP_pressure;BME280_temperature;BME280_humidity;BME280_pressure;Samples;Min_cycle;Max_cycle;Signal;HPM_P1;HPM_P2
2021/05/01 00:01:24;;;;;;;0.10;0.10;;;9.70;99.90;;;;;;5008844;28;20088;-85
2021/05/01 00:03:50;;;;;;;0.10;0.10;;;9.80;99.90;;;;;;5008480;28;20026;-84
2021/05/01 00:06:16;;;;;;;0.30;0.30;;;9.80;99.90;;;;;;5008942;28;20042;-84
2021/05/01 00:08:41;;;;;;;0.10;0.10;;;9.80;99.90;;;;;;5008128;28;20057;-85
2021/05/01 00:11:07;;;;;;;0.10;0.10;;;9.70;99.90;;;;;;5008886;28;20493;-85
2021/05/01 00:13:34;;;;;;;0.17;0.17;;;9.70;99.90;;;;;;5008602;28;20018;-84
2021/05/01 00:16:01;;;;;;;0.10;0.10;;;9.80;99.90;;;;;;5008937;28;20029;-85
2021/05/01 00:18:27;;;;;;;0.20;0.20;;;9.90;99.90;;;;;;5008832;28;20037;-84
2021/05/01 00:20:53;;;;;;;0.20;0.20;;;9.90;99.90;;;;;;5007884;28;20754;-85
2021/05/01 00:23:19;;;;;;;0.20;0.20;;;9.90;99.90;;;;;;5008847;28;20853;-85
2021/05/01 00:25:45;;;;;;;0.10;0.10;;;9.80;99.90;;;;;;5002609;28;20384;-84
2021/05/01 00:28:11;;;;;;;0.30;0.30;;;9.90;99.90;;;;;;4989115;28;20411;-85
2021/05/01 00:30:39;;;;;;;0.28;0.28;;;10.00;99.90;;;;;;5003820;28;20030;-84
2021/05/01 00:33:05;;;;;;;0.85;0.43;;;9.90;99.90;;;;;;5008463;28;20054;-85
2021/05/01 00:35:31;;;;;;;0.22;0.22;;;9.90;99.90;;;;;;5008708;28;20037;-85
2021/05/01 00:37:57;;;;;;;0.10;0.10;;;9.90;99.90;;;;;;5007948;28;20026;-86
2021/05/01 00:40:23;;;;;;;0.50;0.50;;;10.00;99.90;;;;;;5011854;28;20556;-86
2021/05/01 00:42:48;;;;;;;0.17;0.17;;;9.90;99.90;;;;;;5011949;28;20037;-86
2021/05/01 00:45:14;;;;;;;0.10;0.10;;;9.90;99.90;;;;;;5012061;28;20029;-85
2021/05/01 00:47:40;;;;;;;0.10;0.10;;;10.00;99.90;;;;;;5012057;28;20092;-85
2021/05/01 00:50:07;;;;;;;0.10;0.10;;;10.10;99.90;;;;;;5011617;28;20065;-86
2021/05/01 00:52:34;;;;;;;0.03;0.03;;;10.10;99.90;;;;;;5011831;28;20644;-86
2021/05/01 00:55:04;;;;;;;0.10;0.10;;;10.00;99.90;;;;;;5010299;28;20037;-85
2021/05/01 00:57:30;;;;;;;0.30;0.28;;;10.00;99.90;;;;;;5011801;28;20109;-84
2021/05/01 00:59:56;;;;;;;0.93;0.20;;;10.00;99.90;;;;;;5011198;28;20125;-85
2021/05/01 01:02:27;;;;;;;0.30;0.30;;;10.00;99.90;;;;;;5011676;28;20104;-84
2021/05/01 01:04:54;;;;;;;0.10;0.10;;;10.00;99.90;;;;;;5011397;28;20029;-85
2021/05/01 01:07:22;;;;;;;0.20;0.20;;;10.00;99.90;;;;;;5011528;28;20099;-85
2021/05/01 01:09:49;;;;;;;0.50;0.50;;;9.90;99.90;;;;;;5011423;28;20029;-85
2021/05/01 01:12:16;;;;;;;0.03;0.03;;;9.80;99.90;;;;;;5010835;28;20041;-84
2021/05/01 01:14:42;;;;;;;0.38;0.38;;;9.70;99.90;;;;;;5011455;28;20461;-87
2021/05/01 01:17:08;;;;;;;2.53;0.57;;;9.70;99.90;;;;;;5026401;28;20045;-87
2021/05/01 01:19:37;;;;;;;0.00;0.00;;;9.70;99.90;;;;;;5011698;28;20026;-87
2021/05/01 01:22:03;;;;;;;0.47;0.47;;;9.60;99.90;;;;;;5011164;28;20029;-88
2021/05/01 01:24:30;;;;;;;0.10;0.10;;;9.70;99.90;;;;;;5011055;28;20030;-88
2021/05/01 01:26:57;;;;;;;0.22;0.22;;;9.80;99.90;;;;;;5011769;28;20067;-87
2021/05/01 01:29:25;;;;;;;0.10;0.10;;;9.90;99.90;;;;;;5011434;28;20022;-88
2021/05/01 01:31:51;;;;;;;0.00;0.00;;;10.00;99.90;;;;;;5011460;28;20032;-86
2021/05/01 01:34:17;;;;;;;0.00;0.00;;;10.00;99.90;;;;;;5010988;28;20045;-87
2021/05/01 01:36:42;;;;;;;0.63;0.63;;;9.90;99.90;;;;;;5010394;28;20022;-87
2021/05/01 01:39:08;;;;;;;0.15;0.15;;;9.80;99.90;;;;;;5011309;28;20026;-86
2021/05/01 01:41:34;;;;;;;0.10;0.10;;;9.80;99.90;;;;;;4992973;28;20395;-86
2021/05/01 01:44:00;;;;;;;0.13;0.13;;;9.80;99.90;;;;;;4991944;28;20394;-86
2021/05/01 01:46:25;;;;;;;0.52;0.40;;;9.90;99.90;;;;;;4991504;28;20038;-86
2021/05/01 01:48:51;;;;;;;0.68;0.68;;;9.80;99.90;;;;;;4989282;28;20034;-86
2021/05/01 01:51:17;;;;;;;0.10;0.10;;;9.90;99.90;;;;;;5006417;28;20034;-85
2021/05/01 01:53:43;;;;;;;0.20;0.20;;;9.90;99.90;;;;;;4991494;28;20121;-86
2021/05/01 01:56:09;;;;;;;0.57;0.57;;;9.80;99.90;;;;;;4991610;28;20022;-85
2021/05/01 01:58:35;;;;;;;0.00;0.00;;;9.80;99.90;;;;;;4991082;28;20034;-86
2021/05/01 02:01:01;;;;;;;0.32;0.32;;;9.80;99.90;;;;;;4991748;28;20035;-86
2021/05/01 02:03:27;;;;;;;0.30;0.30;;;9.70;99.90;;;;;;4991241;28;20026;-86
2021/05/01 02:05:52;;;;;;;0.20;0.20;;;9.60;99.90;;;;;;4991658;28;20407;-87
2021/05/01 02:08:18;;;;;;;0.10;0.10;;;9.50;99.90;;;;;;4989907;28;20610;-86
2021/05/01 02:10:44;;;;;;;0.03;0.03;;;9.40;99.90;;;;;;4995275;28;20096;-86
2021/05/01 02:13:10;;;;;;;5.50;1.55;;;9.40;99.90;;;;;;5009149;28;20124;-87
2021/05/01 02:15:36;;;;;;;0.15;0.15;;;9.40;99.90;;;;;;5010520;28;20060;-87
2021/05/01 02:18:03;;;;;;;0.17;0.17;;;9.40;99.90;;;;;;5010290;28;20034;-87
2021/05/01 02:20:32;;;;;;;0.10;0.10;;;9.40;99.90;;;;;;5010389;28;20018;-87
2021/05/01 02:22:58;;;;;;;1.65;0.57;;;9.40;99.90;;;;;;5010404;28;20026;-87
2021/05/01 02:25:24;;;;;;;0.20;0.20;;;9.30;99.90;;;;;;5010240;28;20038;-86
2021/05/01 02:27:50;;;;;;;0.25;0.25;;;9.30;99.90;;;;;;5010118;28;20052;-87
2021/05/01 02:30:19;;;;;;;0.13;0.13;;;9.30;99.90;;;;;;5009025;28;20541;-87
2021/05/01 02:32:46;;;;;;;0.10;0.10;;;9.30;99.90;;;;;;5009448;28;20069;-87
2021/05/01 02:35:20;;;;;;;0.40;0.40;;;9.40;99.90;;;;;;5010015;28;20405;-87
2021/05/01 02:37:47;;;;;;;0.10;0.10;;;9.40;99.90;;;;;;5009751;28;20034;-87
2021/05/01 02:40:14;;;;;;;;;;;9.30;99.90;;;;;;5008846;28;20052;-87
2021/05/01 02:42:41;;;;;;;0.13;0.13;;;9.30;99.90;;;;;;5008393;28;19996;-88
2021/05/01 02:45:10;;;;;;;0.10;0.10;;;9.30;99.90;;;;;;5009868;28;20030;-87
2021/05/01 02:47:37;;;;;;;1.85;0.85;;;9.30;99.90;;;;;;5009634;28;20730;-86
2021/05/01 02:50:05;;;;;;;1.92;0.50;;;9.10;99.90;;;;;;5009940;28;20061;-87
2021/05/01 02:52:30;;;;;;;0.57;0.57;;;9.20;99.90;;;;;;5004975;28;20018;-87
2021/05/01 02:54:56;;;;;;;0.10;0.10;;;9.20;99.90;;;;;;4989721;28;20800;-86
2021/05/01 02:57:22;;;;;;;0.10;0.10;;;9.20;99.90;;;;;;4990451;28;20395;-88
2021/05/01 02:59:48;;;;;;;0.10;0.10;;;9.10;99.90;;;;;;5004453;28;20034;-87
2021/05/01 03:02:13;;;;;;;0.22;0.22;;;9.10;99.90;;;;;;4990192;28;20033;-87
2021/05/01 03:04:39;;;;;;;1.15;0.43;;;9.20;99.90;;;;;;4989720;28;20061;-88
2021/05/01 03:07:05;;;;;;;0.10;0.10;;;9.20;99.90;;;;;;5005112;28;20112;-88
2021/05/01 03:09:31;;;;;;;0.10;0.10;;;9.30;99.90;;;;;;4996036;28;20045;-88
2021/05/01 03:11:57;;;;;;;0.10;0.10;;;9.20;99.90;;;;;;5009201;28;20144;-88
2021/05/01 03:14:25;;;;;;;0.13;0.13;;;9.20;99.90;;;;;;5024828;28;20026;-88
2021/05/01 03:16:54;;;;;;;0.50;0.50;;;9.10;99.90;;;;;;5009480;28;20135;-87
2021/05/01 03:19:21;;;;;;;0.20;0.20;;;9.10;99.90;;;;;;5009642;28;20386;-87
2021/05/01 03:21:47;;;;;;;0.25;0.25;;;9.10;99.90;;;;;;5009304;28;20030;-87
2021/05/01 03:24:13;;;;;;;1.05;0.57;;;9.20;99.90;;;;;;5008985;28;20048;-87
2021/05/01 03:26:39;;;;;;;1.80;0.45;;;9.30;99.90;;;;;;5024524;28;20050;-87
2021/05/01 03:29:05;;;;;;;0.10;0.10;;;9.20;99.90;;;;;;5008692;28;20482;-87
2021/05/01 03:31:32;;;;;;;0.50;0.50;;;9.20;99.90;;;;;;5008239;28;20037;-87
2021/05/01 03:33:58;;;;;;;0.25;0.15;;;9.10;99.90;;;;;;5007619;28;20320;-88
2021/05/01 03:36:24;;;;;;;0.25;0.20;;;9.20;99.90;;;;;;5008053;28;20111;-87
2021/05/01 03:38:50;;;;;;;0.30;0.30;;;9.10;99.90;;;;;;5024475;28;20718;-86
2021/05/01 03:41:15;;;;;;;0.20;0.20;;;9.20;99.90;;;;;;5008863;28;20037;-86
2021/05/01 03:43:42;;;;;;;0.40;0.40;;;9.20;99.90;;;;;;5005690;28;20038;-86
2021/05/01 03:46:11;;;;;;;0.35;0.20;;;9.20;99.90;;;;;;5005830;28;20037;-87
2021/05/01 03:48:44;;;;;;;0.10;0.10;;;9.10;99.90;;;;;;5000676;28;20520;-87
2021/05/01 03:51:18;;;;;;;0.15;0.15;;;9.00;99.90;;;;;;4990698;28;20018;-87
2021/05/01 03:53:45;;;;;;;0.63;0.63;;;8.80;99.90;;;;;;5004542;28;20029;-87
2021/05/01 03:56:12;;;;;;;0.50;0.45;;;8.90;99.90;;;;;;4999193;28;20029;-87
2021/05/01 03:58:38;;;;;;;0.20;0.20;;;8.80;99.90;;;;;;5008485;28;20025;-87
2021/05/01 04:01:04;;;;;;;0.10;0.10;;;8.90;99.90;;;;;;5000401;28;20018;-88
2021/05/01 04:03:30;;;;;;;4.20;0.60;;;8.90;99.90;;;;;;5006997;28;20042;-88
2021/05/01 04:05:55;;;;;;;0.35;0.35;;;8.90;99.90;;;;;;5005968;28;20041;-87
2021/05/01 04:08:21;;;;;;;0.10;0.10;;;8.80;99.90;;;;;;5008648;28;20048;-88
2021/05/01 04:10:47;;;;;;;0.00;0.00;;;8.90;99.90;;;;;;5009325;28;20030;-87
2021/05/01 04:13:13;;;;;;;0.10;0.10;;;9.00;99.90;;;;;;5010781;28;20027;-87
2021/05/01 04:15:38;;;;;;;0.10;0.10;;;9.10;99.90;;;;;;5012748;28;20055;-88
2021/05/01 04:18:04;;;;;;;0.10;0.10;;;9.20;99.90;;;;;;5013022;28;20541;-87
2021/05/01 04:20:30;;;;;;;0.10;0.10;;;9.10;99.90;;;;;;5011819;28;20026;-87
2021/05/01 04:22:57;;;;;;;0.10;0.10;;;9.10;99.90;;;;;;5012938;28;20117;-87
2021/05/01 04:25:22;;;;;;;0.20;0.20;;;9.10;99.90;;;;;;5002799;28;20049;-87
2021/05/01 04:27:48;;;;;;;0.17;0.17;;;9.10;99.90;;;;;;5011613;28;20025;-88
2021/05/01 04:30:15;;;;;;;0.20;0.20;;;9.20;99.90;;;;;;5012569;28;20113;-87
2021/05/01 04:32:40;;;;;;;0.22;0.22;;;9.20;99.90;;;;;;5010900;28;20030;-88
2021/05/01 04:35:07;;;;;;;0.47;0.47;;;9.20;99.90;;;;;;5012751;28;20117;-87
2021/05/01 04:37:33;;;;;;;0.10;0.10;;;9.30;99.90;;;;;;5011186;28;20037;-87
2021/05/01 04:39:59;;;;;;;0.25;0.17;;;9.30;99.90;;;;;;5012497;28;20398;-86
2021/05/01 04:42:25;;;;;;;0.10;0.10;;;9.20;99.90;;;;;;5011733;28;20032;-86
2021/05/01 04:44:51;;;;;;;0.15;0.15;;;9.20;99.90;;;;;;5007492;28;20061;-86
2021/05/01 04:47:17;;;;;;;0.20;0.20;;;9.20;99.90;;;;;;5012108;28;20030;-86
2021/05/01 04:49:43;;;;;;;1.27;0.75;;;9.20;99.90;;;;;;5011840;28;20085;-86
2021/05/01 04:52:09;;;;;;;0.08;0.08;;;9.20;99.90;;;;;;5001231;28;20121;-87
2021/05/01 04:54:35;;;;;;;0.10;0.10;;;9.20;99.90;;;;;;5004970;28;20117;-87
2021/05/01 04:57:01;;;;;;;0.45;0.45;;;9.30;99.90;;;;;;5010789;28;20026;-86
2021/05/01 04:59:26;;;;;;;4.78;0.93;;;9.20;99.90;;;;;;5003317;28;20045;-87
2021/05/01 05:01:52;;;;;;;0.20;0.20;;;9.10;99.90;;;;;;5010847;28;20033;-87
2021/05/01 05:04:18;;;;;;;0.10;0.10;;;9.10;99.90;;;;;;5012026;28;20056;-88
2021/05/01 05:06:44;;;;;;;0.10;0.10;;;9.10;99.90;;;;;;5011773;28;20034;-88
2021/05/01 05:09:09;;;;;;;0.10;0.10;;;9.10;99.90;;;;;;4998619;28;20094;-87
2021/05/01 05:11:35;;;;;;;0.15;0.15;;;9.10;99.90;;;;;;4992867;28;20026;-88
2021/05/01 05:14:01;;;;;;;0.05;0.05;;;9.00;99.90;;;;;;5001370;28;20033;-88
2021/05/01 05:16:27;;;;;;;0.10;0.10;;;9.10;99.90;;;;;;5011783;28;20481;-88
2021/05/01 05:18:56;;;;;;;4.40;1.75;;;9.10;99.90;;;;;;5011766;28;20026;-87
2021/05/01 05:21:24;;;;;;;0.20;0.20;;;9.10;99.90;;;;;;4998878;28;20502;-87
2021/05/01 05:23:50;;;;;;;0.38;0.30;;;9.10;99.90;;;;;;4995455;28;20494;-87
2021/05/01 05:26:16;;;;;;;0.20;0.20;;;9.20;99.90;;;;;;5004792;28;20049;-88
2021/05/01 05:28:42;;;;;;;0.10;0.10;;;9.20;99.90;;;;;;5002093;28;20034;-88
2021/05/01 05:31:08;;;;;;;0.00;0.00;;;9.20;99.90;;;;;;5014942;28;20509;-89
2021/05/01 05:33:33;;;;;;;0.35;0.35;;;9.30;99.90;;;;;;5007061;28;20026;-86
2021/05/01 05:35:59;;;;;;;2.20;0.75;;;9.40;99.90;;;;;;5009862;28;20026;-86
2021/05/01 05:38:25;;;;;;;0.40;0.40;;;9.40;99.90;;;;;;5008805;28;20076;-86
2021/05/01 05:40:51;;;;;;;0.30;0.30;;;9.40;99.90;;;;;;5010627;28;20057;-86
2021/05/01 05:43:17;;;;;;;0.10;0.10;;;9.30;99.90;;;;;;5009008;28;20053;-87
2021/05/01 05:45:45;;;;;;;0.15;0.15;;;9.30;99.90;;;;;;5010300;28;20068;-87
2021/05/01 05:48:11;;;;;;;0.50;0.47;;;9.30;99.90;;;;;;5011054;28;20105;-87
2021/05/01 05:50:37;;;;;;;0.32;0.32;;;9.40;99.90;;;;;;5011452;28;20513;-86
2021/05/01 05:53:03;;;;;;;0.30;0.30;;;9.30;99.90;;;;;;5011329;28;20034;-87
2021/05/01 05:55:30;;;;;;;0.20;0.20;;;9.30;99.90;;;;;;5010575;28;20030;-88
2021/05/01 05:57:56;;;;;;;;;;;9.40;99.90;;;;;;5024762;28;20030;-87
2021/05/01 06:00:24;;;;;;;0.00;0.00;;;9.30;99.90;;;;;;5002066;28;20296;-87
2021/05/01 06:02:52;;;;;;;0.20;0.20;;;9.50;99.90;;;;;;4998720;28;20421;-86
2021/05/01 06:05:32;;;;;;;0.30;0.30;;;9.50;99.90;;;;;;5011216;28;20036;-87
2021/05/01 06:08:05;;;;;;;0.20;0.20;;;9.50;99.90;;;;;;5009521;28;20030;-87
2021/05/01 06:10:31;;;;;;;0.17;0.17;;;9.50;99.90;;;;;;5001303;28;20113;-88
2021/05/01 06:12:57;;;;;;;0.20;0.20;;;9.50;99.90;;;;;;5003455;28;20410;-89
2021/05/01 06:15:23;;;;;;;0.20;0.20;;;9.50;99.90;;;;;;5001022;28;20113;-89
2021/05/01 06:17:52;;;;;;;3.33;3.13;;;9.50;99.90;;;;;;5009028;28;20036;-87
2021/05/01 06:20:18;;;;;;;3.30;3.10;;;9.40;99.90;;;;;;5010015;28;20080;-87
2021/05/01 06:22:44;;;;;;;1.30;1.27;;;9.40;99.90;;;;;;5008913;28;20029;-87
2021/05/01 06:25:36;;;;;;;3.13;2.35;;;9.50;99.90;;;;;;4998411;28;20046;-88
2021/05/01 06:28:02;;;;;;;1.52;1.42;;;9.50;99.90;;;;;;5006293;28;20038;-87
2021/05/01 06:30:27;;;;;;;0.57;0.57;;;9.40;99.90;;;;;;5009390;28;20026;-87
2021/05/01 06:32:54;;;;;;;0.60;0.60;;;9.40;99.90;;;;;;5008926;28;20065;-85
2021/05/01 06:35:21;;;;;;;0.68;0.68;;;9.50;99.90;;;;;;4994448;28;20072;-84
2021/05/01 06:37:50;;;;;;;0.15;0.15;;;9.50;99.90;;;;;;5015143;28;20030;-84
2021/05/01 06:40:19;;;;;;;0.38;0.38;;;9.50;99.90;;;;;;4990823;28;20050;-85
2021/05/01 06:43:01;;;;;;;13.85;4.95;;;9.50;99.90;;;;;;4998848;28;20084;-84
2021/05/01 06:45:27;;;;;;;24.25;12.00;;;9.60;99.90;;;;;;5009033;28;20033;-84
2021/05/01 06:47:59;;;;;;;12.23;9.10;;;9.60;99.90;;;;;;5008817;28;20034;-85
2021/05/01 06:50:26;;;;;;;6.25;3.88;;;9.60;99.90;;;;;;5025205;28;20633;-84
2021/05/01 06:52:53;;;;;;;0.90;0.90;;;9.60;99.90;;;;;;5008315;28;20034;-84
2021/05/01 06:55:21;;;;;;;7.45;5.35;;;9.60;99.90;;;;;;5009018;28;20030;-84
2021/05/01 06:57:51;;;;;;;6.72;4.53;;;9.60;99.90;;;;;;5001349;28;20506;-84
2021/05/01 07:00:20;;;;;;;3.72;2.40;;;9.50;99.90;;;;;;5010072;28;20026;-84
2021/05/01 07:02:49;;;;;;;0.82;0.82;;;9.80;99.90;;;;;;5008940;28;20116;-84
2021/05/01 07:05:19;;;;;;;3.20;2.42;;;9.70;99.90;;;;;;5004982;28;20018;-85
2021/05/01 07:07:46;;;;;;;2.47;2.13;;;9.70;99.90;;;;;;5006550;28;20030;-85
2021/05/01 07:10:16;;;;;;;;;;;9.70;99.90;;;;;;5010325;28;20072;-86
2021/05/01 07:12:43;;;;;;;3.03;2.05;;;9.70;99.90;;;;;;5009763;28;20000;-85
2021/05/01 07:15:11;;;;;;;0.80;0.22;;;10.00;99.90;;;;;;5000849;28;20538;-86
2021/05/01 07:17:39;;;;;;;0.40;0.40;;;10.10;99.90;;;;;;5009645;28;20049;-87
2021/05/01 07:20:08;;;;;;;1.05;1.00;;;9.90;99.90;;;;;;5008430;28;20029;-87
2021/05/01 07:22:38;;;;;;;0.52;0.52;;;10.00;99.90;;;;;;5006444;28;20026;-87
2021/05/01 07:25:07;;;;;;;0.43;0.43;;;10.30;99.90;;;;;;5007843;28;20046;-88
2021/05/01 07:27:53;;;;;;;;;;;10.50;99.90;;;;;;5007236;28;20637;-89
2021/05/01 07:30:25;;;;;;;0.65;0.65;;;10.80;99.90;;;;;;5016582;28;19906;-88
2021/05/01 07:33:01;;;;;;;0.25;0.25;;;10.80;99.90;;;;;;5000063;28;20030;-88
2021/05/01 07:35:31;;;;;;;0.43;0.43;;;10.60;99.90;;;;;;5003381;28;20022;-89
2021/05/01 07:38:03;;;;;;;0.65;0.65;;;10.80;99.90;;;;;;5005515;28;20021;-88
2021/05/01 07:40:35;;;;;;;0.65;0.65;;;10.60;99.90;;;;;;4998276;28;20097;-89
2021/05/01 07:43:07;;;;;;;0.43;0.43;;;10.60;99.90;;;;;;5001212;28;20071;-89
2021/05/01 07:45:38;;;;;;;1.10;1.10;;;10.50;99.90;;;;;;4996571;28;20108;-88
2021/05/01 07:48:11;;;;;;;2.00;1.42;;;10.30;99.90;;;;;;4999091;28;20046;-88
2021/05/01 07:50:43;;;;;;;3.75;1.33;;;10.30;99.90;;;;;;5002189;28;20037;-88
2021/05/01 07:53:10;;;;;;;0.55;0.55;;;10.20;99.90;;;;;;5001464;28;20033;-88
2021/05/01 07:55:38;;;;;;;0.20;0.20;;;10.20;99.90;;;;;;5004445;28;20569;-88
2021/05/01 07:58:04;;;;;;;0.40;0.40;;;10.10;99.90;;;;;;5004290;28;20022;-89
2021/05/01 08:00:30;;;;;;;0.35;0.35;;;10.00;1.00;;;;;;5000481;28;20022;-89
2021/05/01 08:02:57;;;;;;;0.50;0.50;;;10.20;99.90;;;;;;4999380;28;20398;-88
2021/05/01 08:05:24;;;;;;;0.55;0.50;;;10.00;99.90;;;;;;5000848;28;20037;-89
2021/05/01 08:07:53;;;;;;;0.63;0.63;;;9.90;99.90;;;;;;5016448;28;20524;-89
2021/05/01 08:10:19;;;;;;;1.55;0.73;;;9.80;1.00;;;;;;5002890;28;20030;-88
2021/05/01 08:12:55;;;;;;;0.10;0.10;;;9.80;1.00;;;;;;5002652;28;20044;-88
2021/05/01 08:15:21;;;;;;;3.17;0.75;;;9.90;99.90;;;;;;5000022;28;20081;-88
2021/05/01 08:17:48;;;;;;;1.03;0.93;;;10.30;99.90;;;;;;4999438;28;20033;-89
2021/05/01 08:20:14;;;;;;;;;;;10.30;99.90;;;;;;5000309;28;20497;-89
2021/05/01 08:22:44;;;;;;;0.65;0.65;;;10.40;99.90;;;;;;5001748;28;20278;-89
2021/05/01 08:25:13;;;;;;;0.40;0.40;;;10.50;99.90;;;;;;4999559;28;20033;-88
2021/05/01 08:27:41;;;;;;;0.20;0.20;;;10.30;99.90;;;;;;4995983;28;20033;-89
2021/05/01 08:30:15;;;;;;;0.25;0.25;;;10.50;99.90;;;;;;4999248;28;20524;-89
2021/05/01 08:32:49;;;;;;;1.40;0.35;;;10.50;99.90;;;;;;5002050;28;20040;-88
2021/05/01 08:35:17;;;;;;;0.47;0.47;;;10.50;99.90;;;;;;4996228;28;20395;-88
2021/05/01 08:37:46;;;;;;;0.35;0.35;;;10.80;99.90;;;;;;4997193;28;20026;-88
2021/05/01 08:40:14;;;;;;;0.50;0.50;;;10.80;99.90;;;;;;4999978;28;20160;-88
2021/05/01 08:42:46;;;;;;;0.10;0.10;;;10.80;99.90;;;;;;5014472;28;20557;-88
2021/05/01 08:45:18;;;;;;;0.28;0.28;;;11.00;99.90;;;;;;5006298;28;20026;-88
2021/05/01 08:47:48;;;;;;;0.32;0.32;;;11.20;99.90;;;;;;5017940;28;20809;-88
2021/05/01 08:50:23;;;;;;;0.20;0.20;;;11.30;99.90;;;;;;5015514;28;20832;-89
2021/05/01 08:52:49;;;;;;;0.30;0.30;;;11.30;99.90;;;;;;4999756;28;20490;-89
2021/05/01 08:55:15;;;;;;;0.43;0.40;;;11.60;99.90;;;;;;5005029;28;20018;-89
2021/05/01 08:57:41;;;;;;;1.00;0.47;;;11.30;99.90;;;;;;5004230;28;20159;-88
2021/05/01 09:00:10;;;;;;;0.43;0.43;;;11.50;99.90;;;;;;5005426;28;20052;-89
2021/05/01 09:02:37;;;;;;;0.38;0.38;;;11.60;99.90;;;;;;4999454;28;20038;-89
2021/05/01 09:05:05;;;;;;;;;;;12.00;99.90;;;;;;5001579;28;20168;-88
2021/05/01 09:07:32;;;;;;;0.40;0.40;;;11.90;99.90;;;;;;4997146;28;19987;-88
2021/05/01 09:09:59;;;;;;;;;;;12.00;99.90;;;;;;5008647;28;20048;-88
2021/05/01 09:12:40;;;;;;;0.55;0.55;;;13.10;99.90;;;;;;5001316;28;19916;-89
2021/05/01 09:15:23;;;;;;;0.75;0.40;;;13.30;99.90;;;;;;4996589;28;20061;-89
2021/05/01 09:18:10;;;;;;;1.45;1.35;;;13.40;99.90;;;;;;5000698;28;21049;-88
2021/05/01 09:20:36;;;;;;;;;;;13.50;99.90;;;;;;5004736;28;20514;-88
2021/05/01 09:23:07;;;;;;;0.20;0.20;;;13.90;99.90;;;;;;5006515;28;19964;-88
2021/05/01 09:25:59;;;;;;;0.20;0.20;;;14.10;99.90;;;;;;5000134;28;20048;-89
2021/05/01 09:28:37;;;;;;;0.95;0.82;;;14.20;99.90;;;;;;5002089;28;20041;-88
2021/05/01 09:31:08;;;;;;;0.10;0.10;;;14.40;99.90;;;;;;4998388;28;20018;-89
2021/05/01 09:33:36;;;;;;;0.50;0.50;;;14.60;99.90;;;;;;5002708;28;20041;-89
2021/05/01 09:36:08;;;;;;;0.13;0.13;;;14.50;99.90;;;;;;5001567;28;20037;-89
2021/05/01 09:38:45;;;;;;;0.47;0.47;;;14.50;99.90;;;;;;4997277;28;20089;-88
2021/05/01 09:41:20;;;;;;;0.45;0.45;;;14.50;99.90;;;;;;5016571;28;20041;-88
2021/05/01 09:44:07;;;;;;;0.45;0.45;;;14.60;99.90;;;;;;5004534;28;20398;-88
2021/05/01 09:46:42;;;;;;;0.60;0.60;;;14.70;99.90;;;;;;4998450;28;20040;-89
2021/05/01 09:49:32;;;;;;;0.20;0.20;;;15.10;99.90;;;;;;5000789;28;20469;-88
2021/05/01 09:52:01;;;;;;;0.63;0.63;;;15.20;99.90;;;;;;5005861;28;20081;-89
2021/05/01 09:54:34;;;;;;;0.88;0.45;;;15.20;99.90;;;;;;5005144;28;20030;-87
2021/05/01 09:57:10;;;;;;;0.35;0.35;;;15.30;99.90;;;;;;5002976;28;20026;-89
2021/05/01 09:59:46;;;;;;;0.30;0.30;;;15.40;99.90;;;;;;5003602;28;20010;-89
2021/05/01 10:02:15;;;;;;;0.10;0.10;;;15.40;99.90;;;;;;5005513;28;20030;-88
2021/05/01 10:04:57;;;;;;;0.85;0.73;;;15.50;99.90;;;;;;5006902;28;20022;-89
2021/05/01 10:07:23;;;;;;;0.32;0.32;;;15.60;99.90;;;;;;5004541;28;20021;-89
2021/05/01 10:09:58;;;;;;;0.25;0.25;;;15.70;99.90;;;;;;5009601;28;20033;-89
2021/05/01 10:12:37;;;;;;;0.28;0.28;;;15.80;99.90;;;;;;5007685;28;20113;-89
2021/05/01 10:15:17;;;;;;;0.38;0.38;;;15.90;99.90;;;;;;5004940;28;20106;-88
2021/05/01 10:17:45;;;;;;;0.40;0.40;;;16.00;99.90;;;;;;5021830;28;20025;-89
2021/05/01 10:20:14;;;;;;;0.52;0.52;;;16.10;99.90;;;;;;5017634;28;20084;-90
2021/05/01 10:22:43;;;;;;;0.47;0.45;;;16.20;99.90;;;;;;4992636;28;20879;-89
2021/05/01 10:25:18;;;;;;;0.55;0.55;;;16.30;99.90;;;;;;5018410;28;20146;-89
2021/05/01 10:28:11;;;;;;;15.13;1.60;;;16.50;99.90;;;;;;5018446;28;20053;-89
2021/05/01 10:30:49;;;;;;;0.30;0.30;;;16.40;99.90;;;;;;5018559;28;20410;-88
2021/05/01 10:33:33;;;;;;;0.25;0.25;;;16.50;99.90;;;;;;5001993;28;20034;-89
2021/05/01 10:36:15;;;;;;;0.38;0.38;;;17.00;99.90;;;;;;5003023;28;20027;-88
2021/05/01 10:38:41;;;;;;;0.55;0.55;;;16.90;99.90;;;;;;5005721;28;20030;-89
2021/05/01 10:41:17;;;;;;;0.35;0.30;;;17.40;99.90;;;;;;5000736;28;20034;-89
2021/05/01 10:43:56;;;;;;;0.70;0.70;;;17.20;99.90;;;;;;5003377;28;20400;-89
2021/05/01 10:46:29;;;;;;;1.40;1.30;;;17.40;99.90;;;;;;4981512;28;20077;-88
2021/05/01 10:49:01;;;;;;;0.30;0.30;;;16.30;99.90;;;;;;5001801;28;20022;-89
2021/05/01 10:51:51;;;;;;;0.50;0.50;;;16.50;99.90;;;;;;5001412;28;20587;-89
2021/05/01 10:54:21;;;;;;;1.10;0.98;;;16.70;99.90;;;;;;5005493;28;20053;-89
2021/05/01 10:56:55;;;;;;;0.50;0.50;;;15.60;99.90;;;;;;4995931;28;20034;-88
2021/05/01 10:59:29;;;;;;;1.25;1.05;;;15.40;99.90;;;;;;5001073;28;20069;-89
2021/05/01 11:02:00;;;;;;;0.82;0.82;;;15.10;99.90;;;;;;4999347;28;20022;-89
2021/05/01 11:04:28;;;;;;;0.43;0.43;;;14.50;99.90;;;;;;4999777;28;20558;-89
2021/05/01 11:07:11;;;;;;;0.32;0.32;;;15.30;99.90;;;;;;5002327;28;20512;-89
2021/05/01 11:10:00;;;;;;;0.47;0.35;;;15.70;99.90;;;;;;5002399;28;20044;-89
2021/05/01 11:12:36;;;;;;;0.50;0.50;;;14.30;99.90;;;;;;4998341;28;20160;-89
2021/05/01 11:15:10;;;;;;;0.10;0.10;;;13.80;99.90;;;;;;5000302;28;20097;-89
2021/05/01 11:17:55;;;;;;;0.80;0.80;;;13.50;99.90;;;;;;4996364;28;20092;-88
2021/05/01 11:20:22;;;;;;;0.98;0.60;;;12.60;99.90;;;;;;5014314;28;20554;-89
2021/05/01 11:22:51;;;;;;;0.32;0.32;;;12.60;99.90;;;;;;5004400;28;20036;-89
2021/05/01 11:25:19;;;;;;;0.28;0.28;;;12.70;99.90;;;;;;4998726;28;20453;-88
2021/05/01 11:27:48;;;;;;;3.75;2.03;;;12.80;99.90;;;;;;5001737;28;20027;-89
2021/05/01 11:30:20;;;;;;;0.22;0.22;;;12.60;99.90;;;;;;5002147;28;20026;-88
2021/05/01 11:32:47;;;;;;;4.40;1.92;;;12.70;1.00;;;;;;5004405;28;20022;-88
2021/05/01 11:35:16;;;;;;;0.63;0.63;;;13.00;41.30;;;;;;5001843;28;20096;-87
2021/05/01 11:37:57;;;;;;;0.68;0.68;;;13.10;1.00;;;;;;5003876;28;20029;-88
2021/05/01 11:40:28;;;;;;;0.80;0.80;;;12.90;1.00;;;;;;4995542;28;20038;-89
2021/05/01 11:42:56;;;;;;;1.02;0.93;;;13.10;1.00;;;;;;5003210;28;20444;-89
2021/05/01 11:45:58;;;;;;;0.22;0.22;;;13.50;99.90;;;;;;4999945;28;20030;-89
2021/05/01 11:48:36;;;;;;;0.30;0.30;;;13.90;99.90;;;;;;5000856;28;20033;-89
2021/05/01 11:51:05;;;;;;;0.82;0.70;;;14.90;99.90;;;;;;4998595;28;20026;-88
2021/05/01 11:53:46;;;;;;;0.20;0.20;;;14.60;99.90;;;;;;5001714;28;20026;-88
2021/05/01 11:56:24;;;;;;;0.40;0.40;;;14.30;99.90;;;;;;5005603;28;20018;-89
2021/05/01 11:58:50;;;;;;;0.57;0.57;;;13.90;99.90;;;;;;5002488;28;20427;-89
2021/05/01 12:01:21;;;;;;;0.60;0.60;;;13.80;99.90;;;;;;5001814;28;20103;-88
2021/05/01 12:03:56;;;;;;;0.43;0.43;;;13.50;99.90;;;;;;5003065;28;20521;-89
2021/05/01 12:06:47;;;;;;;0.40;0.40;;;13.70;99.90;;;;;;4997835;28;20108;-87
2021/05/01 12:09:23;;;;;;;0.32;0.32;;;13.60;99.90;;;;;;5004300;28;20030;-89
2021/05/01 12:11:51;;;;;;;0.65;0.65;;;13.60;99.90;;;;;;5012852;28;20787;-89
2021/05/01 12:14:18;;;;;;;0.85;0.85;;;13.60;99.90;;;;;;5003899;28;20517;-86
2021/05/01 12:16:45;;;;;;;6.25;1.20;;;13.60;99.90;;;;;;4996954;28;20033;-86
2021/05/01 12:19:25;;;;;;;7.05;4.25;;;14.10;99.90;;;;;;5001144;28;20054;-87
2021/05/01 12:21:51;;;;;;;3.97;3.60;;;14.80;99.90;;;;;;5002662;28;20145;-88
2021/05/01 12:24:38;;;;;;;3.13;2.63;;;13.90;99.90;;;;;;4994692;28;20034;-86
2021/05/01 12:27:04;;;;;;;4.80;2.75;;;13.00;99.90;;;;;;5003080;28;20033;-87
2021/05/01 12:29:39;;;;;;;3.70;3.20;;;12.50;99.90;;;;;;5017309;28;20409;-87
2021/05/01 12:32:06;;;;;;;1.10;0.77;;;12.40;99.90;;;;;;5003466;28;20133;-88
2021/05/01 12:34:50;;;;;;;0.75;0.70;;;12.60;99.90;;;;;;5009950;28;20041;-87
2021/05/01 12:37:18;;;;;;;0.75;0.68;;;11.60;99.90;;;;;;5001884;28;20017;-87
2021/05/01 12:39:44;;;;;;;0.03;0.03;;;10.70;99.90;;;;;;5014179;28;20033;-88
2021/05/01 12:42:31;;;;;;;0.60;0.60;;;10.00;99.90;;;;;;5003156;28;20048;-87
2021/05/01 12:44:57;;;;;;;0.45;0.45;;;9.50;9.60;;;;;;5001378;28;20035;-87
2021/05/01 12:47:39;;;;;;;0.30;0.30;;;9.30;99.90;;;;;;5002885;28;20033;-88
2021/05/01 12:50:14;;;;;;;0.73;0.73;;;9.20;34.60;;;;;;5021132;28;20044;-87
2021/05/01 12:52:41;;;;;;;0.10;0.10;;;9.10;99.90;;;;;;5002228;28;20018;-86
2021/05/01 12:55:07;;;;;;;0.57;0.45;;;9.00;99.90;;;;;;5005960;28;20560;-85
2021/05/01 12:57:40;;;;;;;0.20;0.20;;;9.20;99.90;;;;;;5006913;28;20861;-87
2021/05/01 13:00:39;;;;;;;0.40;0.40;;;9.30;99.90;;;;;;5007227;28;20027;-86
2021/05/01 13:03:05;;;;;;;0.10;0.10;;;9.60;99.90;;;;;;4901253;29;20098;-88
2021/05/01 13:05:37;;;;;;;0.08;0.08;;;9.70;99.90;;;;;;4904421;29;20024;-85
2021/05/01 13:08:03;;;;;;;0.10;0.10;;;9.70;99.90;;;;;;4904106;29;20036;-86